OKBO2: North Canadian River at Britton Rd at OKC, OK

                                SHEF ID:       OKBO2     North Canadian River at Britton
STATION TYPE:

STAGE RIV-FLOW WTR-TEMP DIS-OXY CONDUCT BAT-LOAD
ft cfs F mg/l umho/cm volt
Ccp-Rev Ccp-Rev Ccp-Rev Ccp-Rev Ccp-Rev Ccp-Rev
(America/Chicago)
05/03 00:00 4.74 53 72.03 10.55 865 11.96
05/03 01:00 4.73 52 71.01 9.64 857 11.96
05/03 02:00 4.73 52 69.78 8.47 943 11.94
05/03 03:00 4.73 52 68.99 7.69 927 11.92
05/03 04:00 4.75 54 67.93 6.82 947 11.91
05/03 05:00 4.75 54 66.76 6.05 962 11.88
05/03 06:00 4.75 54 66.04 5.53 964 11.85
05/03 07:00 4.76 55 65.14 5.30 968 11.84
05/03 08:00 4.75 54 64.02 5.16 976 12.56
05/03 09:00 4.76 55 63.50 5.85 978 13.22
05/03 10:00 4.76 55 63.72 7.78 979 13.07
05/03 11:00 4.75 54 65.82 9.73 975 12.96
05/03 12:00 4.74 53 68.86 11.30 965 12.86
05/03 13:00 4.75 54 72.23 12.48 964 12.77
05/03 14:00 4.73 52 74.50 13.81 955 12.72
05/03 15:00 4.73 52 76.42 14.78 945 12.73
05/03 16:00 4.72 50 77.76 15.84 940 12.68
05/03 17:00 4.71 49 78.21 16.33 916 12.55
05/03 18:00 4.67 45 77.77 16.33 928 12.61
05/03 19:00 4.67 45 76.95 16.11 923 12.50
05/03 20:00 4.68 46 75.43 14.94 884 12.41
05/03 21:00 4.69 47 74.05 13.48 925 12.21
05/03 22:00 4.72 50 72.86 12.08 933 12.07
05/03 23:00 4.71 49 71.55 10.37 944 12.00
Data processed at Mon 04May2026 04:25 GMT

NOTICE: If you are parsing this page

Please convert to using our Data API. Starting early 2026 we will be migrating to: https://water.usace.army.mil with modern pages rendered in JavaScript. When this migration completes you will no longer be able to scrape this page! CWMSDataAPI (CDA)

Timeseries IDs (TSIDs)

TSIDs used from left to right in the data table
OKC3.Stage.Inst.1Hour.0.Ccp-Rev
OKC3.Flow.Inst.1Hour.0.Ccp-Rev
OKC3.Temp-Water.Inst.1Hour.0.Ccp-Rev
OKC3.Conc-DO.Inst.1Hour.0.Ccp-Rev
OKC3.Cond-Water.Inst.1Hour.0.Ccp-Rev
OKC3.Volt-Battery Load.Inst.1Hour.0.Ccp-Rev

                            

All information presented herein is the property of the government of the United States of America and may be revised or deleted at any time without prior notice. Dissemination of this information without the expressed written consent of the Public Affairs Office, Tulsa District U.S. Army Corps of Engineers is strictly prohibited. These data are gathered electronically and, as presented, have NOT undergone any form of quality control. These data are NOT guaranteed to be valid or correct.